Terminal Aerodrome Forecast
Issued by NWS North Platte, NE

Home | Current Version | Previous Version | Graphics & Text | Print | Product List | Glossary On
Versions: 1 2 3 4 5 6 7 8 9 10 11 12 13 14 15 16 17
625
FTUS43 KLBF 091736
TAFVTN
TAF
KVTN 091736Z 0918/1018 28006KT P6SM VCSH OVC035
      TEMPO 0918/0920 SCT025
     FM100000 VRB03KT P6SM OVC030
     FM101300 26007KT P6SM BKN150=

USA.gov is the U.S. government's official web portal to all federal, state and local government web resources and services.